Barto, PA (19504)

2:02 AM EDT on April 01, 2015 (GMT -0400)
Clayton | | Change Station
CLOSE
Current Station
Personal Weather Station
Location: Bally, PA
Elevation: 505 ft
Nearby Weather Stations

Elev 505 ft 40.42 °N, 75.58 °W | Updated 9 minutes ago

Clear
Clear
31.3 °F
Feels Like 31 °F
N
0.0
Wind Variable Wind from NE

Today
High -- | Low -- °F
--% Chance of Precip.
Yesterday
High -- | Low -- °F
Precip. -- in
6:46 AM 7:26 PM
Waxing Gibbous, 91% visible
Pressure 29.92 in
Visibility 10.0 miles
Clouds Clear
Windchill 31 °F
Dew Point 28 °F
Humidity 87%
Rainfall 0.00 in
Snow Depth Not available.
UV 0 out of 12
Pollen 5.10 out of 12
Air Quality Not available.
Flu Activity Not available.
METAR KPTW 010554Z AUTO 32005KT 10SM CLR M01/M02 A2992 RMK AO2 SLP131 60004 T10061017 10028 21006 51019

More Conditions Fewer Conditions

Pressure 29.92 in
Visibility 10.0 miles
Clouds Clear
Windchill 31 °F
Dew Point 28 °F
Humidity 87%
Rainfall 0.00 in
Snow Depth Not available.
UV 0 out of 12
Pollen 5.10 out of 12
Air Quality Not available.
Flu Activity Not available.
METAR KPTW 010554Z AUTO 32005KT 10SM CLR M01/M02 A2992 RMK AO2 SLP131 60004 T10061017 10028 21006 51019

More Conditions Fewer Conditions

10-Day Weather Forecast

Almanac

Astronomy

Apr. 01, 2015 Rise Set
Actual Time
Civil Twilight
Nautical Twilight
Astronomical Twilight
Moon
Length of Visible Light
Length of Day
Tomorrow will be .
, % of the Moon is Illuminated

Today's Extremes

State Highs State Lows

Community

WunderPhotos

Upload Photos

1,809,920 photos uploaded!

WunderBlogs® & News

Nearby

Air Quality

  Air Quality AQ Index Pollutant
Not available.

Snow Depth

Station Depth Elevation

Earthquake Activity

City Distance Mag. Time & Date
Minimum magnitude displayed is 2.5.

Coastal Water Temperatures

Place Temperature

Stations

Nearby Weather Stations

Station Location Temp. Windchill Dew Point Humidity Wind Precip. Elev Updated Type